sensor_id;sensor_type;location;lat;lon;timestamp;pressure;altitude;pressure_sealevel;temperature;humidity
31761;BME280;18335;51.486;7.562;2023-01-29T00:00:20;101566.47;;;-3.75;100.00
31761;BME280;18335;51.486;7.562;2023-01-29T00:02:47;101556.59;;;-3.71;100.00
31761;BME280;18335;51.486;7.562;2023-01-29T00:05:14;101559.38;;;-3.76;100.00
31761;BME280;18335;51.486;7.562;2023-01-29T00:07:42;101547.00;;;-3.78;100.00
31761;BME280;18335;51.486;7.562;2023-01-29T00:10:10;101552.22;;;-3.74;100.00
31761;BME280;18335;51.486;7.562;2023-01-29T00:12:37;101554.63;;;-3.65;100.00
31761;BME280;18335;51.486;7.562;2023-01-29T00:15:04;101551.16;;;-3.68;100.00
31761;BME280;18335;51.486;7.562;2023-01-29T00:17:31;101546.72;;;-3.68;100.00
31761;BME280;18335;51.486;7.562;2023-01-29T00:19:58;101536.06;;;-3.68;100.00
31761;BME280;18335;51.486;7.562;2023-01-29T00:22:25;101527.19;;;-3.70;100.00
31761;BME280;18335;51.486;7.562;2023-01-29T00:24:53;101535.09;;;-3.67;100.00
31761;BME280;18335;51.486;7.562;2023-01-29T00:27:19;101534.13;;;-3.63;100.00
31761;BME280;18335;51.486;7.562;2023-01-29T00:29:47;101535.34;;;-3.44;100.00
31761;BME280;18335;51.486;7.562;2023-01-29T00:32:34;101534.34;;;-3.41;100.00
31761;BME280;18335;51.486;7.562;2023-01-29T00:35:01;101530.22;;;-3.51;100.00
31761;BME280;18335;51.486;7.562;2023-01-29T00:37:27;101536.25;;;-3.45;100.00
31761;BME280;18335;51.486;7.562;2023-01-29T00:39:56;101529.94;;;-3.42;100.00
31761;BME280;18335;51.486;7.562;2023-01-29T00:42:23;101539.78;;;-3.44;100.00
31761;BME280;18335;51.486;7.562;2023-01-29T00:45:10;101539.09;;;-3.51;100.00
31761;BME280;18335;51.486;7.562;2023-01-29T00:47:37;101529.56;;;-3.59;100.00
31761;BME280;18335;51.486;7.562;2023-01-29T00:50:05;101534.91;;;-3.59;100.00
31761;BME280;18335;51.486;7.562;2023-01-29T00:52:32;101535.09;;;-3.65;100.00
31761;BME280;18335;51.486;7.562;2023-01-29T00:55:03;101532.25;;;-3.61;100.00
31761;BME280;18335;51.486;7.562;2023-01-29T00:57:32;101537.88;;;-3.70;100.00
31761;BME280;18335;51.486;7.562;2023-01-29T00:59:59;101534.91;;;-3.59;100.00
31761;BME280;18335;51.486;7.562;2023-01-29T01:02:27;101535.00;;;-3.62;100.00
31761;BME280;18335;51.486;7.562;2023-01-29T01:05:14;101534.63;;;-3.81;100.00
31761;BME280;18335;51.486;7.562;2023-01-29T01:07:44;101549.41;;;-3.69;100.00
31761;BME280;18335;51.486;7.562;2023-01-29T01:10:16;101546.66;;;-3.66;100.00
31761;BME280;18335;51.486;7.562;2023-01-29T01:12:45;101551.59;;;-3.83;100.00
31761;BME280;18335;51.486;7.562;2023-01-29T01:15:12;101547.16;;;-3.83;100.00
31761;BME280;18335;51.486;7.562;2023-01-29T01:17:39;101554.38;;;-3.88;100.00
31761;BME280;18335;51.486;7.562;2023-01-29T01:20:08;101551.63;;;-3.85;100.00
31761;BME280;18335;51.486;7.562;2023-01-29T01:22:35;101548.88;;;-3.82;100.00
31761;BME280;18335;51.486;7.562;2023-01-29T01:25:02;101553.31;;;-3.81;100.00
31761;BME280;18335;51.486;7.562;2023-01-29T01:27:30;101545.41;;;-3.84;100.00
31761;BME280;18335;51.486;7.562;2023-01-29T01:29:59;101546.53;;;-3.93;100.00
31761;BME280;18335;51.486;7.562;2023-01-29T01:32:26;101534.00;;;-3.89;100.00
31761;BME280;18335;51.486;7.562;2023-01-29T01:34:52;101527.81;;;-3.91;100.00
31761;BME280;18335;51.486;7.562;2023-01-29T01:37:19;101510.91;;;-3.90;100.00
31761;BME280;18335;51.486;7.562;2023-01-29T01:39:46;101503.16;;;-3.98;100.00
31761;BME280;18335;51.486;7.562;2023-01-29T01:42:15;101498.56;;;-3.94;100.00
31761;BME280;18335;51.486;7.562;2023-01-29T01:44:52;101488.84;;;-3.95;100.00
31761;BME280;18335;51.486;7.562;2023-01-29T01:47:25;101492.34;;;-3.93;100.00
31761;BME280;18335;51.486;7.562;2023-01-29T01:49:55;101501.22;;;-3.93;100.00
31761;BME280;18335;51.486;7.562;2023-01-29T01:52:26;101499.25;;;-3.86;100.00
31761;BME280;18335;51.486;7.562;2023-01-29T01:54:54;101498.19;;;-3.80;100.00
31761;BME280;18335;51.486;7.562;2023-01-29T01:57:22;101505.69;;;-3.64;100.00
31761;BME280;18335;51.486;7.562;2023-01-29T01:59:55;101501.94;;;-3.58;100.00
31761;BME280;18335;51.486;7.562;2023-01-29T02:02:24;101507.97;;;-3.50;100.00
31761;BME280;18335;51.486;7.562;2023-01-29T02:05:10;101504.59;;;-3.57;100.00
31761;BME280;18335;51.486;7.562;2023-01-29T02:07:57;101506.97;;;-3.48;100.00
31761;BME280;18335;51.486;7.562;2023-01-29T02:10:44;101513.38;;;-3.53;100.00
31761;BME280;18335;51.486;7.562;2023-01-29T02:13:13;101510.28;;;-3.69;100.00
31761;BME280;18335;51.486;7.562;2023-01-29T02:15:45;101514.97;;;-3.77;100.00
31761;BME280;18335;51.486;7.562;2023-01-29T02:18:14;101504.13;;;-3.71;100.00
31761;BME280;18335;51.486;7.562;2023-01-29T02:20:48;101506.47;;;-3.60;100.00
31761;BME280;18335;51.486;7.562;2023-01-29T02:23:30;101514.63;;;-3.65;100.00
31761;BME280;18335;51.486;7.562;2023-01-29T02:26:14;101511.09;;;-3.67;100.00
31761;BME280;18335;51.486;7.562;2023-01-29T02:28:46;101515.72;;;-3.72;100.00
31761;BME280;18335;51.486;7.562;2023-01-29T02:31:24;101526.38;;;-3.72;100.00
31761;BME280;18335;51.486;7.562;2023-01-29T02:34:02;101529.13;;;-3.75;100.00
31761;BME280;18335;51.486;7.562;2023-01-29T02:36:37;101528.25;;;-3.75;100.00
31761;BME280;18335;51.486;7.562;2023-01-29T02:39:13;101518.56;;;-3.78;100.00
31761;BME280;18335;51.486;7.562;2023-01-29T02:41:44;101520.03;;;-3.68;100.00
31761;BME280;18335;51.486;7.562;2023-01-29T02:44:19;101525.66;;;-3.77;100.00
31761;BME280;18335;51.486;7.562;2023-01-29T02:46:55;101526.22;;;-3.67;100.00
31761;BME280;18335;51.486;7.562;2023-01-29T02:49:26;101528.59;;;-3.57;100.00
31761;BME280;18335;51.486;7.562;2023-01-29T02:52:01;101534.19;;;-3.66;100.00
31761;BME280;18335;51.486;7.562;2023-01-29T02:54:32;101536.81;;;-3.64;100.00
31761;BME280;18335;51.486;7.562;2023-01-29T02:57:09;101532.00;;;-3.52;100.00
31761;BME280;18335;51.486;7.562;2023-01-29T02:59:46;101533.75;;;-3.51;100.00
31761;BME280;18335;51.486;7.562;2023-01-29T03:02:18;101538.22;;;-3.51;100.00
31761;BME280;18335;51.486;7.562;2023-01-29T03:04:49;101534.72;;;-3.53;100.00
31761;BME280;18335;51.486;7.562;2023-01-29T03:07:22;101535.41;;;-3.47;100.00
31761;BME280;18335;51.486;7.562;2023-01-29T03:10:11;101534.09;;;-3.32;100.00
31761;BME280;18335;51.486;7.562;2023-01-29T03:12:41;101541.94;;;-3.27;100.00
31761;BME280;18335;51.486;7.562;2023-01-29T03:15:15;101539.47;;;-3.06;100.00
31761;BME280;18335;51.486;7.562;2023-01-29T03:18:04;101525.94;;;-3.00;100.00
31761;BME280;18335;51.486;7.562;2023-01-29T03:20:38;101530.19;;;-2.94;100.00
31761;BME280;18335;51.486;7.562;2023-01-29T03:23:15;101534.53;;;-2.90;100.00
31761;BME280;18335;51.486;7.562;2023-01-29T03:25:50;101525.44;;;-2.85;100.00
31761;BME280;18335;51.486;7.562;2023-01-29T03:28:38;101522.69;;;-2.83;100.00
31761;BME280;18335;51.486;7.562;2023-01-29T03:31:26;101515.44;;;-2.78;100.00
31761;BME280;18335;51.486;7.562;2023-01-29T03:34:13;101512.81;;;-2.80;100.00
31761;BME280;18335;51.486;7.562;2023-01-29T03:36:52;101530.88;;;-2.88;100.00
31761;BME280;18335;51.486;7.562;2023-01-29T03:39:24;101528.03;;;-2.83;100.00
31761;BME280;18335;51.486;7.562;2023-01-29T03:41:55;101522.00;;;-2.88;100.00
31761;BME280;18335;51.486;7.562;2023-01-29T03:44:29;101525.28;;;-2.80;100.00
31761;BME280;18335;51.486;7.562;2023-01-29T03:47:10;101521.06;;;-2.87;100.00
31761;BME280;18335;51.486;7.562;2023-01-29T03:49:48;101515.38;;;-2.76;100.00
31761;BME280;18335;51.486;7.562;2023-01-29T03:52:22;101513.31;;;-2.68;100.00
31761;BME280;18335;51.486;7.562;2023-01-29T03:54:58;101509.00;;;-2.72;100.00
31761;BME280;18335;51.486;7.562;2023-01-29T03:57:34;101498.56;;;-2.80;100.00
31761;BME280;18335;51.486;7.562;2023-01-29T04:00:10;101497.06;;;-2.89;100.00
31761;BME280;18335;51.486;7.562;2023-01-29T04:02:55;101496.97;;;-2.86;100.00
31761;BME280;18335;51.486;7.562;2023-01-29T04:05:28;101499.75;;;-2.89;100.00
31761;BME280;18335;51.486;7.562;2023-01-29T04:08:22;101491.75;;;-2.89;100.00
31761;BME280;18335;51.486;7.562;2023-01-29T04:10:53;101492.41;;;-2.82;100.00
31761;BME280;18335;51.486;7.562;2023-01-29T04:13:23;101492.50;;;-2.85;100.00
31761;BME280;18335;51.486;7.562;2023-01-29T04:15:55;101490.84;;;-2.89;100.00
31761;BME280;18335;51.486;7.562;2023-01-29T04:18:43;101489.03;;;-2.87;100.00
31761;BME280;18335;51.486;7.562;2023-01-29T04:21:10;101487.09;;;-2.84;100.00
31761;BME280;18335;51.486;7.562;2023-01-29T04:23:37;101479.66;;;-2.74;100.00
31761;BME280;18335;51.486;7.562;2023-01-29T04:26:23;101472.09;;;-2.60;100.00
31761;BME280;18335;51.486;7.562;2023-01-29T04:28:58;101471.72;;;-2.51;100.00
31761;BME280;18335;51.486;7.562;2023-01-29T04:31:33;101472.59;;;-2.50;100.00
31761;BME280;18335;51.486;7.562;2023-01-29T04:34:12;101473.28;;;-2.44;100.00
31761;BME280;18335;51.486;7.562;2023-01-29T04:36:54;101466.72;;;-2.35;100.00
31761;BME280;18335;51.486;7.562;2023-01-29T04:39:31;101471.38;;;-2.40;100.00
31761;BME280;18335;51.486;7.562;2023-01-29T04:42:05;101464.91;;;-2.33;100.00
31761;BME280;18335;51.486;7.562;2023-01-29T04:44:41;101464.56;;;-2.24;100.00
31761;BME280;18335;51.486;7.562;2023-01-29T04:47:18;101456.47;;;-2.22;100.00
31761;BME280;18335;51.486;7.562;2023-01-29T04:49:55;101455.84;;;-2.06;100.00
31761;BME280;18335;51.486;7.562;2023-01-29T04:52:33;101444.53;;;-2.12;100.00
31761;BME280;18335;51.486;7.562;2023-01-29T04:55:04;101452.22;;;-2.03;100.00
31761;BME280;18335;51.486;7.562;2023-01-29T04:57:40;101446.22;;;-2.10;100.00
31761;BME280;18335;51.486;7.562;2023-01-29T05:00:13;101448.25;;;-1.93;100.00
31761;BME280;18335;51.486;7.562;2023-01-29T05:02:45;101448.31;;;-1.95;100.00
31761;BME280;18335;51.486;7.562;2023-01-29T05:05:15;101437.56;;;-1.93;100.00
31761;BME280;18335;51.486;7.562;2023-01-29T05:07:45;101437.44;;;-1.90;100.00
31761;BME280;18335;51.486;7.562;2023-01-29T05:10:14;101442.66;;;-1.87;100.00
31761;BME280;18335;51.486;7.562;2023-01-29T05:12:44;101430.81;;;-1.80;100.00
31761;BME280;18335;51.486;7.562;2023-01-29T05:15:16;101404.75;;;-1.75;100.00
31761;BME280;18335;51.486;7.562;2023-01-29T05:17:43;101404.41;;;-1.66;100.00
31761;BME280;18335;51.486;7.562;2023-01-29T05:20:11;101404.63;;;-1.72;100.00
31761;BME280;18335;51.486;7.562;2023-01-29T05:22:40;101405.56;;;-1.73;100.00
31761;BME280;18335;51.486;7.562;2023-01-29T05:25:19;101405.31;;;-1.67;100.00
31761;BME280;18335;51.486;7.562;2023-01-29T05:27:48;101388.97;;;-1.59;100.00
31761;BME280;18335;51.486;7.562;2023-01-29T05:30:31;101389.91;;;-1.60;100.00
31761;BME280;18335;51.486;7.562;2023-01-29T05:32:58;101405.63;;;-1.75;100.00
31761;BME280;18335;51.486;7.562;2023-01-29T05:35:25;101401.56;;;-1.61;100.00
31761;BME280;18335;51.486;7.562;2023-01-29T05:37:54;101402.78;;;-1.48;100.00
31761;BME280;18335;51.486;7.562;2023-01-29T05:40:21;101395.19;;;-1.59;100.00
31761;BME280;18335;51.486;7.562;2023-01-29T05:42:48;101401.75;;;-1.44;100.00
31761;BME280;18335;51.486;7.562;2023-01-29T05:45:16;101397.63;;;-1.53;100.00
31761;BME280;18335;51.486;7.562;2023-01-29T05:47:43;101392.00;;;-1.69;100.00
31761;BME280;18335;51.486;7.562;2023-01-29T05:50:10;101403.59;;;-1.68;100.00
31761;BME280;18335;51.486;7.562;2023-01-29T05:52:38;101411.75;;;-1.71;100.00
31761;BME280;18335;51.486;7.562;2023-01-29T05:55:07;101424.91;;;-1.67;100.00
31761;BME280;18335;51.486;7.562;2023-01-29T05:57:34;101425.34;;;-1.77;100.00
31761;BME280;18335;51.486;7.562;2023-01-29T06:00:02;101433.84;;;-1.89;100.00
31761;BME280;18335;51.486;7.562;2023-01-29T06:02:37;101439.28;;;-1.69;100.00
31761;BME280;18335;51.486;7.562;2023-01-29T06:05:05;101438.78;;;-1.55;100.00
31761;BME280;18335;51.486;7.562;2023-01-29T06:07:32;101435.97;;;-1.52;100.00
31761;BME280;18335;51.486;7.562;2023-01-29T06:09:59;101440.38;;;-1.51;100.00
31761;BME280;18335;51.486;7.562;2023-01-29T06:12:27;101448.50;;;-1.53;100.00
31761;BME280;18335;51.486;7.562;2023-01-29T06:14:54;101455.97;;;-1.39;100.00
31761;BME280;18335;51.486;7.562;2023-01-29T06:17:20;101453.25;;;-1.38;100.00
31761;BME280;18335;51.486;7.562;2023-01-29T06:19:47;101457.75;;;-1.40;100.00
31761;BME280;18335;51.486;7.562;2023-01-29T06:22:14;101461.94;;;-1.33;100.00
31761;BME280;18335;51.486;7.562;2023-01-29T06:24:40;101467.06;;;-1.27;100.00
31761;BME280;18335;51.486;7.562;2023-01-29T06:27:07;101462.06;;;-1.36;100.00
31761;BME280;18335;51.486;7.562;2023-01-29T06:29:35;101455.59;;;-1.30;100.00
31761;BME280;18335;51.486;7.562;2023-01-29T06:32:02;101454.44;;;-1.23;100.00
31761;BME280;18335;51.486;7.562;2023-01-29T06:34:29;101456.28;;;-1.25;100.00
31761;BME280;18335;51.486;7.562;2023-01-29T06:36:56;101452.00;;;-1.29;100.00
31761;BME280;18335;51.486;7.562;2023-01-29T06:39:23;101445.50;;;-1.24;100.00
31761;BME280;18335;51.486;7.562;2023-01-29T06:41:49;101436.94;;;-1.32;100.00
31761;BME280;18335;51.486;7.562;2023-01-29T06:44:16;101440.16;;;-1.24;100.00
31761;BME280;18335;51.486;7.562;2023-01-29T06:46:44;101450.13;;;-1.27;100.00
31761;BME280;18335;51.486;7.562;2023-01-29T06:49:12;101460.28;;;-1.14;100.00
31761;BME280;18335;51.486;7.562;2023-01-29T06:51:38;101454.34;;;-1.22;100.00
31761;BME280;18335;51.486;7.562;2023-01-29T06:54:05;101444.50;;;-1.21;100.00
31761;BME280;18335;51.486;7.562;2023-01-29T06:56:33;101451.03;;;-1.28;100.00
31761;BME280;18335;51.486;7.562;2023-01-29T06:58:59;101462.97;;;-1.14;100.00
31761;BME280;18335;51.486;7.562;2023-01-29T07:01:26;101466.69;;;-1.18;100.00
31761;BME280;18335;51.486;7.562;2023-01-29T07:03:55;101469.78;;;-1.06;100.00
31761;BME280;18335;51.486;7.562;2023-01-29T07:06:26;101460.47;;;-1.18;100.00
31761;BME280;18335;51.486;7.562;2023-01-29T07:08:53;101459.22;;;-1.09;100.00
31761;BME280;18335;51.486;7.562;2023-01-29T07:11:20;101465.56;;;-1.12;100.00
31761;BME280;18335;51.486;7.562;2023-01-29T07:13:46;101465.94;;;-0.99;100.00
31761;BME280;18335;51.486;7.562;2023-01-29T07:16:13;101459.72;;;-1.00;100.00
31761;BME280;18335;51.486;7.562;2023-01-29T07:18:40;101457.63;;;-1.14;100.00
31761;BME280;18335;51.486;7.562;2023-01-29T07:21:08;101448.25;;;-1.03;100.00
31761;BME280;18335;51.486;7.562;2023-01-29T07:23:35;101458.09;;;-1.04;100.00
31761;BME280;18335;51.486;7.562;2023-01-29T07:26:02;101470.97;;;-0.92;100.00
31761;BME280;18335;51.486;7.562;2023-01-29T07:28:29;101462.44;;;-1.01;100.00
31761;BME280;18335;51.486;7.562;2023-01-29T07:30:56;101449.03;;;-1.01;100.00
31761;BME280;18335;51.486;7.562;2023-01-29T07:33:24;101438.06;;;-0.95;100.00
31761;BME280;18335;51.486;7.562;2023-01-29T07:35:51;101441.59;;;-0.93;100.00
31761;BME280;18335;51.486;7.562;2023-01-29T07:38:20;101431.31;;;-1.04;100.00
31761;BME280;18335;51.486;7.562;2023-01-29T07:40:47;101441.97;;;-1.02;100.00
31761;BME280;18335;51.486;7.562;2023-01-29T07:43:14;101442.75;;;-1.00;100.00
31761;BME280;18335;51.486;7.562;2023-01-29T07:45:41;101445.59;;;-0.83;100.00
31761;BME280;18335;51.486;7.562;2023-01-29T07:48:10;101440.63;;;-0.92;100.00
31761;BME280;18335;51.486;7.562;2023-01-29T07:50:38;101439.28;;;-0.81;100.00
31761;BME280;18335;51.486;7.562;2023-01-29T07:53:05;101436.91;;;-0.88;100.00
31761;BME280;18335;51.486;7.562;2023-01-29T07:55:33;101433.69;;;-0.76;100.00
31761;BME280;18335;51.486;7.562;2023-01-29T07:58:01;101439.84;;;-0.94;100.00
31761;BME280;18335;51.486;7.562;2023-01-29T08:00:28;101429.78;;;-0.89;100.00
31761;BME280;18335;51.486;7.562;2023-01-29T08:03:01;101424.44;;;-0.89;100.00
31761;BME280;18335;51.486;7.562;2023-01-29T08:05:28;101419.19;;;-0.92;100.00
31761;BME280;18335;51.486;7.562;2023-01-29T08:07:54;101408.53;;;-0.72;100.00
31761;BME280;18335;51.486;7.562;2023-01-29T08:10:21;101403.84;;;-0.67;100.00
31761;BME280;18335;51.486;7.562;2023-01-29T08:12:54;101408.31;;;-0.68;100.00
31761;BME280;18335;51.486;7.562;2023-01-29T08:15:21;101411.75;;;-0.64;100.00
31761;BME280;18335;51.486;7.562;2023-01-29T08:17:48;101409.06;;;-0.64;100.00
31761;BME280;18335;51.486;7.562;2023-01-29T08:20:15;101397.06;;;-0.56;100.00
31761;BME280;18335;51.486;7.562;2023-01-29T08:22:42;101407.44;;;-0.68;100.00
31761;BME280;18335;51.486;7.562;2023-01-29T08:25:09;101415.78;;;-0.54;100.00
31761;BME280;18335;51.486;7.562;2023-01-29T08:27:36;101416.44;;;-0.49;100.00
31761;BME280;18335;51.486;7.562;2023-01-29T08:30:05;101409.19;;;-0.47;100.00
31761;BME280;18335;51.486;7.562;2023-01-29T08:32:32;101421.06;;;-0.52;100.00
31761;BME280;18335;51.486;7.562;2023-01-29T08:34:59;101430.72;;;-0.48;100.00
31761;BME280;18335;51.486;7.562;2023-01-29T08:37:26;101422.94;;;-0.34;100.00
31761;BME280;18335;51.486;7.562;2023-01-29T08:39:53;101423.56;;;-0.48;100.00
31761;BME280;18335;51.486;7.562;2023-01-29T08:42:20;101425.84;;;-0.39;100.00
31761;BME280;18335;51.486;7.562;2023-01-29T08:44:46;101417.94;;;-0.42;100.00
31761;BME280;18335;51.486;7.562;2023-01-29T08:47:14;101405.72;;;-0.49;100.00
31761;BME280;18335;51.486;7.562;2023-01-29T08:49:41;101399.44;;;-0.48;100.00
31761;BME280;18335;51.486;7.562;2023-01-29T08:52:08;101397.44;;;-0.44;100.00
31761;BME280;18335;51.486;7.562;2023-01-29T08:54:34;101381.72;;;-0.52;100.00
31761;BME280;18335;51.486;7.562;2023-01-29T08:57:01;101377.38;;;-0.54;100.00
31761;BME280;18335;51.486;7.562;2023-01-29T08:59:28;101385.88;;;-0.45;100.00
31761;BME280;18335;51.486;7.562;2023-01-29T09:01:55;101384.59;;;-0.36;100.00
31761;BME280;18335;51.486;7.562;2023-01-29T09:04:24;101388.00;;;-0.33;100.00
31761;BME280;18335;51.486;7.562;2023-01-29T09:06:51;101377.72;;;-0.42;100.00
31761;BME280;18335;51.486;7.562;2023-01-29T09:09:17;101385.63;;;-0.39;100.00
31761;BME280;18335;51.486;7.562;2023-01-29T09:11:44;101379.16;;;-0.35;100.00
31761;BME280;18335;51.486;7.562;2023-01-29T09:14:11;101379.16;;;-0.35;100.00
31761;BME280;18335;51.486;7.562;2023-01-29T09:16:39;101372.22;;;-0.20;100.00
31761;BME280;18335;51.486;7.562;2023-01-29T09:19:05;101370.94;;;-0.12;100.00
31761;BME280;18335;51.486;7.562;2023-01-29T09:21:34;101366.03;;;0.17;100.00
31761;BME280;18335;51.486;7.562;2023-01-29T09:24:00;101374.28;;;0.12;100.00
31761;BME280;18335;51.486;7.562;2023-01-29T09:26:27;101371.25;;;0.20;100.00
31761;BME280;18335;51.486;7.562;2023-01-29T09:28:54;101367.50;;;0.24;100.00
31761;BME280;18335;51.486;7.562;2023-01-29T09:31:20;101367.59;;;0.39;100.00
31761;BME280;18335;51.486;7.562;2023-01-29T09:33:47;101357.75;;;0.40;100.00
31761;BME280;18335;51.486;7.562;2023-01-29T09:36:14;101360.97;;;0.65;100.00
31761;BME280;18335;51.486;7.562;2023-01-29T09:38:42;101359.72;;;0.72;100.00
31761;BME280;18335;51.486;7.562;2023-01-29T09:41:19;101351.84;;;0.86;100.00
31761;BME280;18335;51.486;7.562;2023-01-29T09:43:52;101355.47;;;0.85;100.00
31761;BME280;18335;51.486;7.562;2023-01-29T09:46:24;101361.00;;;0.99;100.00
31761;BME280;18335;51.486;7.562;2023-01-29T09:48:58;101352.63;;;0.88;100.00
31761;BME280;18335;51.486;7.562;2023-01-29T09:51:29;101347.88;;;0.76;100.00
31761;BME280;18335;51.486;7.562;2023-01-29T09:54:11;101345.03;;;0.79;100.00
31761;BME280;18335;51.486;7.562;2023-01-29T09:56:41;101349.28;;;0.66;100.00
31761;BME280;18335;51.486;7.562;2023-01-29T09:59:10;101343.56;;;0.55;100.00
31761;BME280;18335;51.486;7.562;2023-01-29T10:01:44;101358.78;;;0.73;100.00
31761;BME280;18335;51.486;7.562;2023-01-29T10:04:31;101352.19;;;0.62;100.00
31761;BME280;18335;51.486;7.562;2023-01-29T10:07:15;101346.88;;;0.60;100.00
31761;BME280;18335;51.486;7.562;2023-01-29T10:09:59;101348.00;;;0.56;100.00
31761;BME280;18335;51.486;7.562;2023-01-29T10:12:43;101346.22;;;0.74;100.00
31761;BME280;18335;51.486;7.562;2023-01-29T10:15:25;101349.84;;;0.90;100.00
31761;BME280;18335;51.486;7.562;2023-01-29T10:18:17;101359.34;;;0.97;100.00
31761;BME280;18335;51.486;7.562;2023-01-29T10:21:01;101351.56;;;0.92;100.00
31761;BME280;18335;51.486;7.562;2023-01-29T10:23:36;101345.56;;;1.04;100.00
31761;BME280;18335;51.486;7.562;2023-01-29T10:26:09;101343.31;;;1.13;100.00
31761;BME280;18335;51.486;7.562;2023-01-29T10:28:40;101353.28;;;1.28;100.00
31761;BME280;18335;51.486;7.562;2023-01-29T10:31:14;101362.91;;;1.32;100.00
31761;BME280;18335;51.486;7.562;2023-01-29T10:33:46;101355.16;;;1.26;100.00
31761;BME280;18335;51.486;7.562;2023-01-29T10:36:17;101343.88;;;1.36;100.00
31761;BME280;18335;51.486;7.562;2023-01-29T10:38:46;101341.97;;;1.38;100.00
31761;BME280;18335;51.486;7.562;2023-01-29T10:41:22;101333.56;;;1.44;100.00
31761;BME280;18335;51.486;7.562;2023-01-29T10:44:03;101339.19;;;1.23;100.00
31761;BME280;18335;51.486;7.562;2023-01-29T10:49:36;101324.97;;;1.21;100.00
31761;BME280;18335;51.486;7.562;2023-01-29T10:52:19;101318.09;;;1.32;100.00
31761;BME280;18335;51.486;7.562;2023-01-29T10:55:01;101305.69;;;1.13;100.00
31761;BME280;18335;51.486;7.562;2023-01-29T10:57:45;101301.47;;;1.41;100.00
31761;BME280;18335;51.486;7.562;2023-01-29T11:00:17;101296.41;;;1.35;100.00
31761;BME280;18335;51.486;7.562;2023-01-29T11:02:46;101297.44;;;1.33;100.00
31761;BME280;18335;51.486;7.562;2023-01-29T11:05:19;101292.19;;;1.64;100.00
31761;BME280;18335;51.486;7.562;2023-01-29T11:07:53;101282.59;;;1.58;100.00
31761;BME280;18335;51.486;7.562;2023-01-29T11:10:26;101285.00;;;1.47;100.00
31761;BME280;18335;51.486;7.562;2023-01-29T11:12:55;101275.22;;;1.46;100.00
31761;BME280;18335;51.486;7.562;2023-01-29T11:15:25;101293.81;;;1.34;100.00
31761;BME280;18335;51.486;7.562;2023-01-29T11:18:06;101290.16;;;1.35;100.00
31761;BME280;18335;51.486;7.562;2023-01-29T11:20:35;101290.72;;;1.41;100.00
31761;BME280;18335;51.486;7.562;2023-01-29T11:23:02;101287.47;;;1.52;100.00
31761;BME280;18335;51.486;7.562;2023-01-29T11:25:29;101290.25;;;1.66;100.00
31761;BME280;18335;51.486;7.562;2023-01-29T11:28:00;101287.63;;;1.49;100.00
31761;BME280;18335;51.486;7.562;2023-01-29T11:30:30;101276.72;;;1.52;100.00
31761;BME280;18335;51.486;7.562;2023-01-29T11:33:16;101278.84;;;1.45;100.00
31761;BME280;18335;51.486;7.562;2023-01-29T11:35:44;101268.81;;;1.49;100.00
31761;BME280;18335;51.486;7.562;2023-01-29T11:38:20;101262.31;;;1.68;100.00
31761;BME280;18335;51.486;7.562;2023-01-29T11:40:48;101254.75;;;1.59;100.00
31761;BME280;18335;51.486;7.562;2023-01-29T11:43:22;101242.94;;;1.62;100.00
31761;BME280;18335;51.486;7.562;2023-01-29T11:45:54;101250.09;;;1.63;100.00
31761;BME280;18335;51.486;7.562;2023-01-29T11:48:28;101244.03;;;1.75;100.00
31761;BME280;18335;51.486;7.562;2023-01-29T11:50:58;101236.53;;;1.49;100.00
31761;BME280;18335;51.486;7.562;2023-01-29T11:53:34;101228.03;;;1.56;100.00
31761;BME280;18335;51.486;7.562;2023-01-29T11:56:04;101213.09;;;1.51;100.00
31761;BME280;18335;51.486;7.562;2023-01-29T11:58:34;101206.69;;;1.69;100.00
31761;BME280;18335;51.486;7.562;2023-01-29T12:01:02;101200.88;;;1.77;100.00
31761;BME280;18335;51.486;7.562;2023-01-29T12:03:33;101206.59;;;1.55;100.00
31761;BME280;18335;51.486;7.562;2023-01-29T12:06:04;101196.44;;;1.60;100.00
31761;BME280;18335;51.486;7.562;2023-01-29T12:08:35;101202.81;;;1.90;100.00
31761;BME280;18335;51.486;7.562;2023-01-29T12:11:10;101189.28;;;1.76;100.00
31761;BME280;18335;51.486;7.562;2023-01-29T12:13:40;101188.28;;;1.61;100.00
31761;BME280;18335;51.486;7.562;2023-01-29T12:16:21;101175.88;;;1.59;100.00
31761;BME280;18335;51.486;7.562;2023-01-29T12:18:53;101172.78;;;1.66;100.00
31761;BME280;18335;51.486;7.562;2023-01-29T12:21:25;101165.22;;;1.73;100.00
31761;BME280;18335;51.486;7.562;2023-01-29T12:23:56;101155.34;;;1.58;100.00
31761;BME280;18335;51.486;7.562;2023-01-29T12:26:30;101143.97;;;1.68;100.00
31761;BME280;18335;51.486;7.562;2023-01-29T12:29:12;101137.81;;;1.82;100.00
31761;BME280;18335;51.486;7.562;2023-01-29T12:31:46;101131.09;;;1.89;100.00
31761;BME280;18335;51.486;7.562;2023-01-29T12:34:19;101123.84;;;1.76;100.00
31761;BME280;18335;51.486;7.562;2023-01-29T12:36:51;101110.78;;;1.84;100.00
31761;BME280;18335;51.486;7.562;2023-01-29T12:39:21;101106.81;;;1.75;100.00
31761;BME280;18335;51.486;7.562;2023-01-29T12:41:53;101103.72;;;1.67;100.00
31761;BME280;18335;51.486;7.562;2023-01-29T12:44:27;101105.53;;;1.66;100.00
31761;BME280;18335;51.486;7.562;2023-01-29T12:46:59;101096.25;;;1.56;100.00
31761;BME280;18335;51.486;7.562;2023-01-29T12:49:29;101089.25;;;1.84;100.00
31761;BME280;18335;51.486;7.562;2023-01-29T12:52:01;101092.50;;;2.04;100.00
31761;BME280;18335;51.486;7.562;2023-01-29T12:54:34;101083.91;;;2.13;100.00
31761;BME280;18335;51.486;7.562;2023-01-29T12:57:07;101080.53;;;1.94;100.00
31761;BME280;18335;51.486;7.562;2023-01-29T12:59:41;101087.69;;;1.80;100.00
31761;BME280;18335;51.486;7.562;2023-01-29T13:02:17;101082.50;;;2.06;100.00
31761;BME280;18335;51.486;7.562;2023-01-29T13:04:55;101070.63;;;2.10;100.00
31761;BME280;18335;51.486;7.562;2023-01-29T13:07:27;101083.94;;;1.98;100.00